sensor_id;sensor_type;location;lat;lon;timestamp;noise_LAeq;noise_LA_min;noise_LA_max;noise_LA01;noise_LA95
66459;Laerm;70605;52.550;4.730;2023-08-30T00:00:09;44.11;42.87;46.87;;
66459;Laerm;70605;52.550;4.730;2023-08-30T00:00:20;44.05;43.01;46.09;;
66459;Laerm;70605;52.550;4.730;2023-08-30T00:00:33;44.02;42.80;46.09;;
66459;Laerm;70605;52.550;4.730;2023-08-30T00:00:43;43.90;42.83;45.55;;
66459;Laerm;70605;52.550;4.730;2023-08-30T00:00:55;44.66;43.05;50.09;;
66459;Laerm;70605;52.550;4.730;2023-08-30T00:01:05;45.78;43.11;56.51;;
66459;Laerm;70605;52.550;4.730;2023-08-30T00:01:16;45.63;42.86;52.65;;
66459;Laerm;70605;52.550;4.730;2023-08-30T00:01:26;44.24;43.18;49.73;;
66459;Laerm;70605;52.550;4.730;2023-08-30T00:01:36;44.34;43.14;49.29;;
66459;Laerm;70605;52.550;4.730;2023-08-30T00:01:47;44.23;42.79;46.64;;
66459;Laerm;70605;52.550;4.730;2023-08-30T00:01:57;46.91;43.17;57.00;;
66459;Laerm;70605;52.550;4.730;2023-08-30T00:02:07;45.24;43.19;52.93;;
66459;Laerm;70605;52.550;4.730;2023-08-30T00:02:18;46.93;43.24;58.00;;
66459;Laerm;70605;52.550;4.730;2023-08-30T00:02:29;46.67;42.99;56.49;;
66459;Laerm;70605;52.550;4.730;2023-08-30T00:02:39;45.53;43.03;52.54;;
66459;Laerm;70605;52.550;4.730;2023-08-30T00:02:49;44.44;43.16;49.80;;
66459;Laerm;70605;52.550;4.730;2023-08-30T00:03:00;45.03;43.03;51.11;;
66459;Laerm;70605;52.550;4.730;2023-08-30T00:03:11;45.58;43.05;56.02;;
66459;Laerm;70605;52.550;4.730;2023-08-30T00:03:22;47.44;43.00;58.15;;
66459;Laerm;70605;52.550;4.730;2023-08-30T00:03:32;48.27;43.10;56.38;;
66459;Laerm;70605;52.550;4.730;2023-08-30T00:03:42;44.80;42.93;54.88;;
66459;Laerm;70605;52.550;4.730;2023-08-30T00:03:53;46.59;43.24;55.24;;
66459;Laerm;70605;52.550;4.730;2023-08-30T00:04:04;45.67;43.21;53.34;;
66459;Laerm;70605;52.550;4.730;2023-08-30T00:04:17;45.49;43.32;52.68;;
66459;Laerm;70605;52.550;4.730;2023-08-30T00:04:28;44.52;42.89;49.40;;
66459;Laerm;70605;52.550;4.730;2023-08-30T00:04:38;45.05;43.08;55.56;;
66459;Laerm;70605;52.550;4.730;2023-08-30T00:04:49;44.27;42.82;48.33;;
66459;Laerm;70605;52.550;4.730;2023-08-30T00:04:59;47.67;42.82;56.18;;
66459;Laerm;70605;52.550;4.730;2023-08-30T00:05:12;46.35;42.79;55.55;;
66459;Laerm;70605;52.550;4.730;2023-08-30T00:05:26;44.89;42.31;51.38;;
66459;Laerm;70605;52.550;4.730;2023-08-30T00:05:40;47.66;42.84;58.95;;
66459;Laerm;70605;52.550;4.730;2023-08-30T00:05:51;45.76;43.13;56.40;;
66459;Laerm;70605;52.550;4.730;2023-08-30T00:06:05;44.48;42.81;50.82;;
66459;Laerm;70605;52.550;4.730;2023-08-30T00:06:15;46.24;42.74;57.76;;
66459;Laerm;70605;52.550;4.730;2023-08-30T00:06:26;44.74;42.54;53.85;;
66459;Laerm;70605;52.550;4.730;2023-08-30T00:06:36;43.96;42.59;48.27;;
66459;Laerm;70605;52.550;4.730;2023-08-30T00:06:47;44.02;42.63;49.01;;
66459;Laerm;70605;52.550;4.730;2023-08-30T00:06:57;44.04;42.94;47.45;;
66459;Laerm;70605;52.550;4.730;2023-08-30T00:07:07;45.53;42.95;53.25;;
66459;Laerm;70605;52.550;4.730;2023-08-30T00:07:17;46.49;43.26;52.96;;
66459;Laerm;70605;52.550;4.730;2023-08-30T00:07:28;45.30;42.57;52.61;;
66459;Laerm;70605;52.550;4.730;2023-08-30T00:07:38;44.20;43.06;48.34;;
66459;Laerm;70605;52.550;4.730;2023-08-30T00:07:48;43.98;42.91;47.22;;
66459;Laerm;70605;52.550;4.730;2023-08-30T00:07:59;45.03;43.21;52.61;;
66459;Laerm;70605;52.550;4.730;2023-08-30T00:08:09;44.52;42.88;50.24;;
66459;Laerm;70605;52.550;4.730;2023-08-30T00:08:19;45.10;42.87;56.46;;
66459;Laerm;70605;52.550;4.730;2023-08-30T00:08:30;45.65;42.86;55.77;;
66459;Laerm;70605;52.550;4.730;2023-08-30T00:08:40;46.36;42.57;54.90;;
66459;Laerm;70605;52.550;4.730;2023-08-30T00:08:51;45.60;42.57;52.99;;
66459;Laerm;70605;52.550;4.730;2023-08-30T00:09:01;45.05;42.65;52.22;;
66459;Laerm;70605;52.550;4.730;2023-08-30T00:09:12;45.50;42.90;52.88;;
66459;Laerm;70605;52.550;4.730;2023-08-30T00:09:23;44.33;43.04;49.55;;
66459;Laerm;70605;52.550;4.730;2023-08-30T00:09:33;43.84;42.66;47.51;;
66459;Laerm;70605;52.550;4.730;2023-08-30T00:09:46;44.63;43.11;48.74;;
66459;Laerm;70605;52.550;4.730;2023-08-30T00:09:57;44.61;43.06;48.41;;
66459;Laerm;70605;52.550;4.730;2023-08-30T00:10:08;45.38;43.00;54.00;;
66459;Laerm;70605;52.550;4.730;2023-08-30T00:10:20;44.77;42.81;48.70;;
66459;Laerm;70605;52.550;4.730;2023-08-30T00:10:30;46.34;43.49;55.69;;
66459;Laerm;70605;52.550;4.730;2023-08-30T00:10:41;46.75;43.46;56.67;;
66459;Laerm;70605;52.550;4.730;2023-08-30T00:10:52;45.07;43.05;52.71;;
66459;Laerm;70605;52.550;4.730;2023-08-30T00:11:03;44.01;42.67;49.02;;
66459;Laerm;70605;52.550;4.730;2023-08-30T00:11:14;44.74;42.68;48.27;;
66459;Laerm;70605;52.550;4.730;2023-08-30T00:11:24;47.61;43.55;55.67;;
66459;Laerm;70605;52.550;4.730;2023-08-30T00:11:35;55.01;45.47;61.75;;
66459;Laerm;70605;52.550;4.730;2023-08-30T00:11:45;58.26;52.00;65.60;;
66459;Laerm;70605;52.550;4.730;2023-08-30T00:11:55;52.79;46.65;59.35;;
66459;Laerm;70605;52.550;4.730;2023-08-30T00:12:06;48.26;44.22;54.37;;
66459;Laerm;70605;52.550;4.730;2023-08-30T00:12:16;47.60;43.40;57.74;;
66459;Laerm;70605;52.550;4.730;2023-08-30T00:12:26;48.18;43.61;58.31;;
66459;Laerm;70605;52.550;4.730;2023-08-30T00:12:36;46.34;43.11;54.05;;
66459;Laerm;70605;52.550;4.730;2023-08-30T00:12:47;44.93;43.20;50.80;;
66459;Laerm;70605;52.550;4.730;2023-08-30T00:12:57;44.62;43.16;48.94;;
66459;Laerm;70605;52.550;4.730;2023-08-30T00:13:07;45.61;43.31;53.44;;
66459;Laerm;70605;52.550;4.730;2023-08-30T00:13:17;48.07;43.60;60.91;;
66459;Laerm;70605;52.550;4.730;2023-08-30T00:13:31;47.28;43.34;56.09;;
66459;Laerm;70605;52.550;4.730;2023-08-30T00:13:42;46.24;42.70;58.23;;
66459;Laerm;70605;52.550;4.730;2023-08-30T00:13:52;44.77;42.99;54.13;;
66459;Laerm;70605;52.550;4.730;2023-08-30T00:14:03;44.88;42.94;50.77;;
66459;Laerm;70605;52.550;4.730;2023-08-30T00:14:15;46.55;43.11;56.55;;
66459;Laerm;70605;52.550;4.730;2023-08-30T00:14:26;45.16;43.23;48.48;;
66459;Laerm;70605;52.550;4.730;2023-08-30T00:14:36;49.17;43.34;56.44;;
66459;Laerm;70605;52.550;4.730;2023-08-30T00:14:46;55.89;48.75;62.36;;
66459;Laerm;70605;52.550;4.730;2023-08-30T00:14:56;56.28;50.39;63.41;;
66459;Laerm;70605;52.550;4.730;2023-08-30T00:15:07;51.90;46.94;58.33;;
66459;Laerm;70605;52.550;4.730;2023-08-30T00:15:17;46.33;43.66;52.10;;
66459;Laerm;70605;52.550;4.730;2023-08-30T00:15:27;46.92;43.36;55.09;;
66459;Laerm;70605;52.550;4.730;2023-08-30T00:15:38;49.68;43.97;60.49;;
66459;Laerm;70605;52.550;4.730;2023-08-30T00:15:48;47.70;43.55;54.65;;
66459;Laerm;70605;52.550;4.730;2023-08-30T00:15:58;46.07;43.31;53.83;;
66459;Laerm;70605;52.550;4.730;2023-08-30T00:16:09;45.48;43.35;53.10;;
66459;Laerm;70605;52.550;4.730;2023-08-30T00:16:19;45.19;43.13;58.87;;
66459;Laerm;70605;52.550;4.730;2023-08-30T00:16:29;45.22;43.01;53.07;;
66459;Laerm;70605;52.550;4.730;2023-08-30T00:16:40;44.60;43.11;49.35;;
66459;Laerm;70605;52.550;4.730;2023-08-30T00:16:50;45.40;43.09;54.66;;
66459;Laerm;70605;52.550;4.730;2023-08-30T00:17:00;49.53;43.31;61.36;;
66459;Laerm;70605;52.550;4.730;2023-08-30T00:17:10;45.42;43.26;52.74;;
66459;Laerm;70605;52.550;4.730;2023-08-30T00:17:21;49.32;43.38;60.37;;
66459;Laerm;70605;52.550;4.730;2023-08-30T00:17:32;47.33;43.09;58.15;;
66459;Laerm;70605;52.550;4.730;2023-08-30T00:17:42;46.78;43.15;57.61;;
66459;Laerm;70605;52.550;4.730;2023-08-30T00:17:52;44.91;43.06;51.52;;
66459;Laerm;70605;52.550;4.730;2023-08-30T00:18:03;45.91;43.13;52.99;;
66459;Laerm;70605;52.550;4.730;2023-08-30T00:18:14;46.23;43.22;54.58;;
66459;Laerm;70605;52.550;4.730;2023-08-30T00:18:24;45.84;43.33;53.89;;
66459;Laerm;70605;52.550;4.730;2023-08-30T00:18:34;45.29;43.37;52.71;;
66459;Laerm;70605;52.550;4.730;2023-08-30T00:18:44;48.10;43.50;56.36;;
66459;Laerm;70605;52.550;4.730;2023-08-30T00:18:55;53.77;44.98;62.12;;
66459;Laerm;70605;52.550;4.730;2023-08-30T00:19:06;59.95;51.53;67.37;;
66459;Laerm;70605;52.550;4.730;2023-08-30T00:19:16;57.52;51.51;63.65;;
66459;Laerm;70605;52.550;4.730;2023-08-30T00:19:27;51.92;46.08;57.10;;
66459;Laerm;70605;52.550;4.730;2023-08-30T00:19:37;47.61;43.47;55.44;;
66459;Laerm;70605;52.550;4.730;2023-08-30T00:19:47;44.73;42.79;49.16;;
66459;Laerm;70605;52.550;4.730;2023-08-30T00:19:58;44.47;42.56;51.13;;
66459;Laerm;70605;52.550;4.730;2023-08-30T00:20:09;45.55;43.08;54.30;;
66459;Laerm;70605;52.550;4.730;2023-08-30T00:20:20;44.59;43.03;49.33;;
66459;Laerm;70605;52.550;4.730;2023-08-30T00:20:31;44.43;43.02;54.37;;
66459;Laerm;70605;52.550;4.730;2023-08-30T00:20:41;44.99;42.67;52.95;;
66459;Laerm;70605;52.550;4.730;2023-08-30T00:20:51;46.70;43.13;57.62;;
66459;Laerm;70605;52.550;4.730;2023-08-30T00:21:01;44.42;43.04;49.87;;
66459;Laerm;70605;52.550;4.730;2023-08-30T00:21:12;44.96;42.76;52.92;;
66459;Laerm;70605;52.550;4.730;2023-08-30T00:21:22;46.36;43.06;55.57;;
66459;Laerm;70605;52.550;4.730;2023-08-30T00:21:32;46.31;43.36;54.77;;
66459;Laerm;70605;52.550;4.730;2023-08-30T00:21:42;44.59;43.37;49.67;;
66459;Laerm;70605;52.550;4.730;2023-08-30T00:21:54;44.42;43.51;46.53;;
66459;Laerm;70605;52.550;4.730;2023-08-30T00:22:04;44.79;43.16;47.35;;
66459;Laerm;70605;52.550;4.730;2023-08-30T00:22:17;44.10;43.04;47.71;;
66459;Laerm;70605;52.550;4.730;2023-08-30T00:22:27;43.83;42.90;46.59;;
66459;Laerm;70605;52.550;4.730;2023-08-30T00:22:38;44.51;42.62;52.90;;
66459;Laerm;70605;52.550;4.730;2023-08-30T00:22:49;44.15;42.96;50.77;;
66459;Laerm;70605;52.550;4.730;2023-08-30T00:23:00;43.92;42.79;46.97;;
66459;Laerm;70605;52.550;4.730;2023-08-30T00:23:10;44.83;42.53;50.09;;
66459;Laerm;70605;52.550;4.730;2023-08-30T00:23:20;44.68;43.16;48.15;;
66459;Laerm;70605;52.550;4.730;2023-08-30T00:23:30;45.73;43.67;51.12;;
66459;Laerm;70605;52.550;4.730;2023-08-30T00:23:41;44.43;43.19;47.32;;
66459;Laerm;70605;52.550;4.730;2023-08-30T00:23:51;43.86;42.39;45.45;;
66459;Laerm;70605;52.550;4.730;2023-08-30T00:24:01;44.59;42.84;53.84;;
66459;Laerm;70605;52.550;4.730;2023-08-30T00:24:12;44.02;42.86;47.03;;
66459;Laerm;70605;52.550;4.730;2023-08-30T00:24:22;44.71;43.08;52.42;;
66459;Laerm;70605;52.550;4.730;2023-08-30T00:24:33;45.68;43.03;56.21;;
66459;Laerm;70605;52.550;4.730;2023-08-30T00:24:43;45.50;43.06;55.65;;
66459;Laerm;70605;52.550;4.730;2023-08-30T00:24:53;44.58;42.97;51.93;;
66459;Laerm;70605;52.550;4.730;2023-08-30T00:25:04;44.73;43.22;51.13;;
66459;Laerm;70605;52.550;4.730;2023-08-30T00:25:15;44.63;42.90;50.02;;
66459;Laerm;70605;52.550;4.730;2023-08-30T00:25:26;45.23;43.07;55.58;;
66459;Laerm;70605;52.550;4.730;2023-08-30T00:25:36;45.11;42.75;57.07;;
66459;Laerm;70605;52.550;4.730;2023-08-30T00:25:46;45.23;43.03;51.15;;
66459;Laerm;70605;52.550;4.730;2023-08-30T00:25:57;45.00;43.12;49.68;;
66459;Laerm;70605;52.550;4.730;2023-08-30T00:26:07;45.43;43.46;51.89;;
66459;Laerm;70605;52.550;4.730;2023-08-30T00:26:17;45.54;43.23;52.49;;
66459;Laerm;70605;52.550;4.730;2023-08-30T00:26:27;45.76;43.32;54.32;;
66459;Laerm;70605;52.550;4.730;2023-08-30T00:26:38;43.86;42.81;46.30;;
66459;Laerm;70605;52.550;4.730;2023-08-30T00:26:48;44.25;42.90;47.77;;
66459;Laerm;70605;52.550;4.730;2023-08-30T00:26:58;44.61;43.23;50.46;;
66459;Laerm;70605;52.550;4.730;2023-08-30T00:27:08;45.80;43.51;54.96;;
66459;Laerm;70605;52.550;4.730;2023-08-30T00:27:19;45.42;43.94;48.81;;
66459;Laerm;70605;52.550;4.730;2023-08-30T00:27:32;45.77;43.60;53.15;;
66459;Laerm;70605;52.550;4.730;2023-08-30T00:27:42;46.11;43.51;57.49;;
66459;Laerm;70605;52.550;4.730;2023-08-30T00:27:52;44.55;43.47;46.80;;
66459;Laerm;70605;52.550;4.730;2023-08-30T00:28:02;44.51;42.82;51.58;;
66459;Laerm;70605;52.550;4.730;2023-08-30T00:28:13;46.07;43.53;55.25;;
66459;Laerm;70605;52.550;4.730;2023-08-30T00:28:23;45.47;43.26;52.22;;
66459;Laerm;70605;52.550;4.730;2023-08-30T00:28:33;45.56;42.90;54.23;;
66459;Laerm;70605;52.550;4.730;2023-08-30T00:28:44;45.71;42.62;53.29;;
66459;Laerm;70605;52.550;4.730;2023-08-30T00:28:54;45.33;43.01;54.64;;
66459;Laerm;70605;52.550;4.730;2023-08-30T00:29:04;45.30;43.44;50.11;;
66459;Laerm;70605;52.550;4.730;2023-08-30T00:29:14;45.77;43.29;52.25;;
66459;Laerm;70605;52.550;4.730;2023-08-30T00:29:25;46.83;43.15;57.35;;
66459;Laerm;70605;52.550;4.730;2023-08-30T00:29:35;45.73;43.26;56.17;;
66459;Laerm;70605;52.550;4.730;2023-08-30T00:29:46;44.44;43.06;51.48;;
66459;Laerm;70605;52.550;4.730;2023-08-30T00:29:56;44.63;42.88;50.21;;
66459;Laerm;70605;52.550;4.730;2023-08-30T00:30:06;46.51;42.78;57.02;;
66459;Laerm;70605;52.550;4.730;2023-08-30T00:30:18;44.93;42.90;51.28;;
66459;Laerm;70605;52.550;4.730;2023-08-30T00:30:28;45.95;43.18;52.35;;
66459;Laerm;70605;52.550;4.730;2023-08-30T00:30:39;44.86;42.85;54.68;;
66459;Laerm;70605;52.550;4.730;2023-08-30T00:30:52;45.06;42.85;56.03;;
66459;Laerm;70605;52.550;4.730;2023-08-30T00:31:02;45.17;42.79;56.74;;
66459;Laerm;70605;52.550;4.730;2023-08-30T00:31:13;44.38;42.72;47.87;;
66459;Laerm;70605;52.550;4.730;2023-08-30T00:31:23;46.39;43.14;54.40;;
66459;Laerm;70605;52.550;4.730;2023-08-30T00:31:33;47.77;43.20;57.48;;
66459;Laerm;70605;52.550;4.730;2023-08-30T00:31:43;46.60;43.05;54.04;;
66459;Laerm;70605;52.550;4.730;2023-08-30T00:31:54;45.00;42.78;54.02;;
66459;Laerm;70605;52.550;4.730;2023-08-30T00:32:04;44.85;42.89;53.84;;
66459;Laerm;70605;52.550;4.730;2023-08-30T00:32:14;47.86;43.49;61.67;;
66459;Laerm;70605;52.550;4.730;2023-08-30T00:32:25;45.88;42.89;58.55;;
66459;Laerm;70605;52.550;4.730;2023-08-30T00:32:35;45.09;42.79;55.33;;
66459;Laerm;70605;52.550;4.730;2023-08-30T00:32:45;45.96;42.95;59.02;;
66459;Laerm;70605;52.550;4.730;2023-08-30T00:32:56;45.72;43.30;52.27;;
66459;Laerm;70605;52.550;4.730;2023-08-30T00:33:06;47.48;43.02;59.50;;
66459;Laerm;70605;52.550;4.730;2023-08-30T00:33:16;47.64;43.14;57.89;;
66459;Laerm;70605;52.550;4.730;2023-08-30T00:33:26;45.38;42.54;53.76;;
66459;Laerm;70605;52.550;4.730;2023-08-30T00:33:37;44.93;43.03;54.21;;
66459;Laerm;70605;52.550;4.730;2023-08-30T00:33:48;46.33;42.94;55.16;;
66459;Laerm;70605;52.550;4.730;2023-08-30T00:33:58;45.04;43.12;52.51;;
66459;Laerm;70605;52.550;4.730;2023-08-30T00:34:08;44.86;42.85;51.04;;
66459;Laerm;70605;52.550;4.730;2023-08-30T00:34:19;46.66;43.16;56.60;;
66459;Laerm;70605;52.550;4.730;2023-08-30T00:34:29;45.62;42.93;55.58;;
66459;Laerm;70605;52.550;4.730;2023-08-30T00:34:39;45.82;43.12;63.54;;
66459;Laerm;70605;52.550;4.730;2023-08-30T00:34:50;43.88;43.02;46.02;;
66459;Laerm;70605;52.550;4.730;2023-08-30T00:35:01;44.69;42.69;51.99;;
66459;Laerm;70605;52.550;4.730;2023-08-30T00:35:12;45.23;43.23;53.87;;
66459;Laerm;70605;52.550;4.730;2023-08-30T00:35:22;45.06;43.22;51.16;;
66459;Laerm;70605;52.550;4.730;2023-08-30T00:35:32;45.46;43.03;53.91;;
66459;Laerm;70605;52.550;4.730;2023-08-30T00:35:43;44.42;42.89;49.35;;
66459;Laerm;70605;52.550;4.730;2023-08-30T00:35:56;44.27;42.81;51.30;;
66459;Laerm;70605;52.550;4.730;2023-08-30T00:36:07;44.99;42.83;57.98;;
66459;Laerm;70605;52.550;4.730;2023-08-30T00:36:17;46.82;43.09;56.50;;
66459;Laerm;70605;52.550;4.730;2023-08-30T00:36:28;48.13;43.23;56.05;;
66459;Laerm;70605;52.550;4.730;2023-08-30T00:36:38;46.07;42.73;55.15;;
66459;Laerm;70605;52.550;4.730;2023-08-30T00:36:49;46.62;43.27;58.52;;
66459;Laerm;70605;52.550;4.730;2023-08-30T00:36:59;45.31;43.01;51.58;;
66459;Laerm;70605;52.550;4.730;2023-08-30T00:37:09;44.76;43.11;50.25;;
66459;Laerm;70605;52.550;4.730;2023-08-30T00:37:20;44.89;43.12;51.11;;
66459;Laerm;70605;52.550;4.730;2023-08-30T00:37:30;46.09;43.41;54.10;;
66459;Laerm;70605;52.550;4.730;2023-08-30T00:37:40;45.97;43.43;54.99;;
66459;Laerm;70605;52.550;4.730;2023-08-30T00:37:51;46.76;43.55;56.15;;
66459;Laerm;70605;52.550;4.730;2023-08-30T00:38:01;45.87;43.43;53.74;;
66459;Laerm;70605;52.550;4.730;2023-08-30T00:38:12;44.67;43.39;49.00;;
66459;Laerm;70605;52.550;4.730;2023-08-30T00:38:22;45.38;43.18;50.72;;
66459;Laerm;70605;52.550;4.730;2023-08-30T00:38:32;44.95;43.06;50.80;;
66459;Laerm;70605;52.550;4.730;2023-08-30T00:38:43;46.21;43.01;53.63;;
66459;Laerm;70605;52.550;4.730;2023-08-30T00:38:53;47.28;43.48;56.00;;
66459;Laerm;70605;52.550;4.730;2023-08-30T00:39:03;47.41;43.51;57.35;;
66459;Laerm;70605;52.550;4.730;2023-08-30T00:39:14;47.68;43.62;54.91;;
66459;Laerm;70605;52.550;4.730;2023-08-30T00:39:24;45.16;43.40;48.95;;
66459;Laerm;70605;52.550;4.730;2023-08-30T00:39:37;46.33;43.35;54.38;;
66459;Laerm;70605;52.550;4.730;2023-08-30T00:39:47;45.50;43.05;56.13;;
66459;Laerm;70605;52.550;4.730;2023-08-30T00:39:57;47.48;43.09;60.54;;
66459;Laerm;70605;52.550;4.730;2023-08-30T00:40:09;44.43;42.98;48.37;;
66459;Laerm;70605;52.550;4.730;2023-08-30T00:40:23;44.03;42.60;52.22;;
66459;Laerm;70605;52.550;4.730;2023-08-30T00:40:39;44.38;42.71;52.06;;
66459;Laerm;70605;52.550;4.730;2023-08-30T00:40:49;45.79;42.54;56.18;;
66459;Laerm;70605;52.550;4.730;2023-08-30T00:41:00;45.73;42.81;55.39;;
66459;Laerm;70605;52.550;4.730;2023-08-30T00:41:10;44.95;43.12;50.25;;
66459;Laerm;70605;52.550;4.730;2023-08-30T00:41:20;46.79;43.24;58.14;;
66459;Laerm;70605;52.550;4.730;2023-08-30T00:41:30;44.72;43.13;51.72;;
66459;Laerm;70605;52.550;4.730;2023-08-30T00:41:41;48.52;43.44;60.16;;
66459;Laerm;70605;52.550;4.730;2023-08-30T00:41:51;47.50;43.48;56.21;;
66459;Laerm;70605;52.550;4.730;2023-08-30T00:42:01;47.29;42.90;56.23;;
66459;Laerm;70605;52.550;4.730;2023-08-30T00:42:15;44.84;43.06;56.04;;
66459;Laerm;70605;52.550;4.730;2023-08-30T00:42:26;44.40;42.97;51.84;;
66459;Laerm;70605;52.550;4.730;2023-08-30T00:42:37;44.44;42.88;50.68;;
66459;Laerm;70605;52.550;4.730;2023-08-30T00:42:47;44.40;42.92;47.28;;
66459;Laerm;70605;52.550;4.730;2023-08-30T00:42:57;45.13;43.18;52.23;;
66459;Laerm;70605;52.550;4.730;2023-08-30T00:43:08;46.59;43.19;56.78;;
66459;Laerm;70605;52.550;4.730;2023-08-30T00:43:19;52.00;43.31;61.57;;
66459;Laerm;70605;52.550;4.730;2023-08-30T00:43:29;49.01;43.21;59.08;;
66459;Laerm;70605;52.550;4.730;2023-08-30T00:43:39;45.70;43.61;54.72;;
66459;Laerm;70605;52.550;4.730;2023-08-30T00:43:49;45.42;42.89;48.85;;
66459;Laerm;70605;52.550;4.730;2023-08-30T00:44:00;44.71;42.95;49.19;;
66459;Laerm;70605;52.550;4.730;2023-08-30T00:44:10;48.97;42.66;59.47;;
66459;Laerm;70605;52.550;4.730;2023-08-30T00:44:20;45.39;43.12;51.67;;
66459;Laerm;70605;52.550;4.730;2023-08-30T00:44:30;44.86;42.63;53.50;;
66459;Laerm;70605;52.550;4.730;2023-08-30T00:44:41;47.10;42.75;61.41;;
66459;Laerm;70605;52.550;4.730;2023-08-30T00:44:51;45.31;42.17;51.98;;
66459;Laerm;70605;52.550;4.730;2023-08-30T00:45:02;47.58;42.74;55.28;;
66459;Laerm;70605;52.550;4.730;2023-08-30T00:45:12;47.43;43.11;54.75;;
66459;Laerm;70605;52.550;4.730;2023-08-30T00:45:22;46.30;43.06;56.12;;
66459;Laerm;70605;52.550;4.730;2023-08-30T00:45:33;45.59;43.15;51.93;;
66459;Laerm;70605;52.550;4.730;2023-08-30T00:45:44;49.79;42.77;63.58;;
66459;Laerm;70605;52.550;4.730;2023-08-30T00:45:54;46.12;43.25;54.08;;
66459;Laerm;70605;52.550;4.730;2023-08-30T00:46:05;46.42;43.51;55.52;;
66459;Laerm;70605;52.550;4.730;2023-08-30T00:46:15;49.38;43.32;59.96;;
66459;Laerm;70605;52.550;4.730;2023-08-30T00:46:26;47.58;43.20;56.59;;
66459;Laerm;70605;52.550;4.730;2023-08-30T00:46:36;52.10;43.43;62.45;;
66459;Laerm;70605;52.550;4.730;2023-08-30T00:46:47;50.29;43.06;63.03;;
66459;Laerm;70605;52.550;4.730;2023-08-30T00:46:58;49.89;42.98;61.08;;
66459;Laerm;70605;52.550;4.730;2023-08-30T00:47:09;43.89;42.61;48.33;;
66459;Laerm;70605;52.550;4.730;2023-08-30T00:47:20;45.63;42.84;54.46;;
66459;Laerm;70605;52.550;4.730;2023-08-30T00:47:30;46.53;42.88;56.77;;
66459;Laerm;70605;52.550;4.730;2023-08-30T00:47:40;46.03;42.91;55.05;;
66459;Laerm;70605;52.550;4.730;2023-08-30T00:47:51;43.95;42.83;46.78;;
66459;Laerm;70605;52.550;4.730;2023-08-30T00:48:01;44.99;42.76;50.90;;
66459;Laerm;70605;52.550;4.730;2023-08-30T00:48:11;43.99;42.77;48.48;;
66459;Laerm;70605;52.550;4.730;2023-08-30T00:48:22;44.96;42.44;53.11;;
66459;Laerm;70605;52.550;4.730;2023-08-30T00:48:33;49.14;43.10;60.32;;
66459;Laerm;70605;52.550;4.730;2023-08-30T00:48:43;47.44;42.85;58.36;;
66459;Laerm;70605;52.550;4.730;2023-08-30T00:48:54;44.79;42.84;52.55;;
66459;Laerm;70605;52.550;4.730;2023-08-30T00:49:05;46.64;42.67;57.75;;
66459;Laerm;70605;52.550;4.730;2023-08-30T00:49:15;46.47;42.80;56.53;;
66459;Laerm;70605;52.550;4.730;2023-08-30T00:49:26;45.88;42.67;57.48;;
66459;Laerm;70605;52.550;4.730;2023-08-30T00:49:36;46.03;42.84;54.19;;
66459;Laerm;70605;52.550;4.730;2023-08-30T00:49:46;47.18;42.55;57.69;;
66459;Laerm;70605;52.550;4.730;2023-08-30T00:49:57;46.50;43.38;54.74;;
66459;Laerm;70605;52.550;4.730;2023-08-30T00:50:07;47.77;43.58;57.70;;
66459;Laerm;70605;52.550;4.730;2023-08-30T00:50:18;45.69;43.85;52.93;;
66459;Laerm;70605;52.550;4.730;2023-08-30T00:50:28;45.18;43.60;49.57;;
66459;Laerm;70605;52.550;4.730;2023-08-30T00:50:39;44.87;43.64;50.41;;
66459;Laerm;70605;52.550;4.730;2023-08-30T00:50:49;45.36;43.52;50.89;;
66459;Laerm;70605;52.550;4.730;2023-08-30T00:51:00;45.12;43.26;53.28;;
66459;Laerm;70605;52.550;4.730;2023-08-30T00:51:10;44.91;43.27;51.39;;
66459;Laerm;70605;52.550;4.730;2023-08-30T00:51:20;45.69;43.50;55.70;;
66459;Laerm;70605;52.550;4.730;2023-08-30T00:51:31;45.68;42.93;58.76;;
66459;Laerm;70605;52.550;4.730;2023-08-30T00:51:42;44.68;43.20;52.29;;
66459;Laerm;70605;52.550;4.730;2023-08-30T00:51:52;44.72;43.07;50.49;;
66459;Laerm;70605;52.550;4.730;2023-08-30T00:52:03;44.81;43.17;47.94;;
66459;Laerm;70605;52.550;4.730;2023-08-30T00:52:14;44.57;43.26;48.63;;
66459;Laerm;70605;52.550;4.730;2023-08-30T00:52:25;45.11;43.32;50.07;;
66459;Laerm;70605;52.550;4.730;2023-08-30T00:52:35;45.00;43.41;51.77;;
66459;Laerm;70605;52.550;4.730;2023-08-30T00:52:45;44.06;43.08;48.47;;
66459;Laerm;70605;52.550;4.730;2023-08-30T00:52:56;44.27;42.79;48.86;;
66459;Laerm;70605;52.550;4.730;2023-08-30T00:53:06;44.52;42.67;55.59;;
66459;Laerm;70605;52.550;4.730;2023-08-30T00:53:17;44.77;43.13;56.45;;
66459;Laerm;70605;52.550;4.730;2023-08-30T00:53:27;44.03;42.81;45.69;;
66459;Laerm;70605;52.550;4.730;2023-08-30T00:53:38;44.26;43.02;47.66;;
66459;Laerm;70605;52.550;4.730;2023-08-30T00:53:48;44.47;42.97;49.13;;
66459;Laerm;70605;52.550;4.730;2023-08-30T00:53:59;46.80;43.52;56.04;;
66459;Laerm;70605;52.550;4.730;2023-08-30T00:54:09;46.47;43.31;53.36;;
66459;Laerm;70605;52.550;4.730;2023-08-30T00:54:20;46.23;43.29;54.05;;
66459;Laerm;70605;52.550;4.730;2023-08-30T00:54:31;47.27;43.12;56.45;;
66459;Laerm;70605;52.550;4.730;2023-08-30T00:54:41;44.31;42.69;49.04;;
66459;Laerm;70605;52.550;4.730;2023-08-30T00:54:52;44.46;42.85;52.48;;
66459;Laerm;70605;52.550;4.730;2023-08-30T00:55:03;43.96;42.86;47.46;;
66459;Laerm;70605;52.550;4.730;2023-08-30T00:55:13;44.82;42.78;54.13;;
66459;Laerm;70605;52.550;4.730;2023-08-30T00:55:23;43.96;42.81;49.45;;
66459;Laerm;70605;52.550;4.730;2023-08-30T00:55:37;44.14;42.69;50.30;;
66459;Laerm;70605;52.550;4.730;2023-08-30T00:55:47;44.38;42.88;48.74;;
66459;Laerm;70605;52.550;4.730;2023-08-30T00:55:57;46.26;43.05;55.42;;
66459;Laerm;70605;52.550;4.730;2023-08-30T00:56:08;47.34;43.48;59.60;;
66459;Laerm;70605;52.550;4.730;2023-08-30T00:56:18;46.70;43.22;55.21;;
66459;Laerm;70605;52.550;4.730;2023-08-30T00:56:28;46.18;44.29;52.34;;
66459;Laerm;70605;52.550;4.730;2023-08-30T00:56:40;45.81;43.71;48.84;;
66459;Laerm;70605;52.550;4.730;2023-08-30T00:56:50;46.03;43.39;53.49;;
66459;Laerm;70605;52.550;4.730;2023-08-30T00:57:01;44.71;43.09;51.21;;
66459;Laerm;70605;52.550;4.730;2023-08-30T00:57:12;44.68;43.29;49.94;;
66459;Laerm;70605;52.550;4.730;2023-08-30T00:57:22;45.49;43.21;54.90;;
66459;Laerm;70605;52.550;4.730;2023-08-30T00:57:33;46.52;43.39;57.12;;
66459;Laerm;70605;52.550;4.730;2023-08-30T00:57:43;45.41;43.30;52.92;;
66459;Laerm;70605;52.550;4.730;2023-08-30T00:57:54;44.63;43.36;49.22;;
66459;Laerm;70605;52.550;4.730;2023-08-30T00:58:04;44.67;43.31;51.56;;
66459;Laerm;70605;52.550;4.730;2023-08-30T00:58:14;45.79;42.96;53.13;;
66459;Laerm;70605;52.550;4.730;2023-08-30T00:58:25;46.61;43.45;52.67;;
66459;Laerm;70605;52.550;4.730;2023-08-30T00:58:37;47.87;43.38;60.47;;
66459;Laerm;70605;52.550;4.730;2023-08-30T00:58:47;46.23;43.33;57.29;;
66459;Laerm;70605;52.550;4.730;2023-08-30T00:58:58;45.29;43.08;50.34;;
66459;Laerm;70605;52.550;4.730;2023-08-30T00:59:09;44.95;43.08;49.85;;
66459;Laerm;70605;52.550;4.730;2023-08-30T00:59:19;45.20;43.12;50.74;;
66459;Laerm;70605;52.550;4.730;2023-08-30T00:59:30;44.22;42.93;48.01;;